默认 日期 大小 文件数 浏览量 最新下载 xml
espera/磁力链接相关资源由用户搜索指令自动获取,结果来源于网络,本站不存储任何资料,亦不承担任何责任,请于24小时内删除,搜索到168个磁力,用时0ms。
    ... ": 6927831, "01 Canção da Espera.mp3": 4634550, "04 Mais do ...
创建时间: 2018-11-09 22:50:18 大小:84.87 MB 文件数量:16 热度:10 最近下载:2025-03-06 12:13:01
    {"Leia.txt": 162, "BLUDV.mp4": 33957794, "BLUDV.url": 110, "A.vida.em.espera.2018.1080p.BluRay.6CH.x264.DUAL-WWW.BLUDV.COM.mkv": 1928967888, "A.vida.em.espera.2018.1080p.BluRay.6CH.x264.DUAL-WWW.BLUDV.COM.srt": 69296}
创建时间: 2018-11-18 11:00:36 大小:1.83 GB 文件数量:5 热度:10 最近下载:2025-08-02 10:35:03
    {"MeEsperaSingle.jpg": 109893, "Sandy - Me Espera (part. Tiago Iorc).mp3": 9228827}
创建时间: 2019-03-20 06:06:39 大小:8.91 MB 文件数量:2 热度:10 最近下载:2024-10-02 06:10:02
    ... b.jpg": 275465, "Noches de espera (2013)c.jpg": 399507, "Noches ... de espera (2013)d.jpg": 288145, " ... f.jpg": 297216, "Noches de espera (2013)g.jpg": 351242}, "Noches ... de espera (2013).avi": 892183708, "Noches de ...
创建时间: 2019-06-14 06:03:19 大小:852.71 MB 文件数量:8 热度:10 最近下载:2025-09-27 23:17:01
    {"Importante Leeme!.vbs": 213, "Descargar Películas, Series y Animes...url": 50, "Midsommar.el.terror.no.espera.la.noche.2019.1080p-dual-lat.mkv": 4463424008}
创建时间: 2022-10-31 20:03:48 大小:4.16 GB 文件数量:3 热度:10 最近下载:2025-09-17 16:46:03
    ... 016-¡Corre Gohan! Milk te espera en la montaña Paoz ... -016-corre-gohan-milk-te-espera-en-la-montana-paoz_meta.xml ... -016-corre-gohan-milk-te-espera-en-la-montana-paoz_meta.sqlite ...
创建时间: 2024-10-09 17:15:54 大小:48.46 MB 文件数量:4 热度:10 最近下载:2025-09-18 18:33:02
    {"Grand Theft Auto II (GTA 2) Portable - [Espera].nfo": 1649, "Grand Theft Auto II (GTA 2) Portable - [Espera].rar": 31933515}
创建时间: 2018-12-03 05:55:23 大小:30.46 MB 文件数量:2 热度:9 最近下载:2025-08-18 14:44:02
    {"Mortal Kombat 4 Portable - [Espera].nfo": 1764, "Mortal Kombat 4 Portable - [Espera].rar": 13689221}
创建时间: 2018-12-23 05:49:19 大小:13.06 MB 文件数量:2 热度:9 最近下载:2023-03-23 20:50:05
    {"Midsommar.O.Mal.Nao.Espera.a.Noite.2019.720p.BluRay.6CH.x264.DUBLADO-LAPUMiA.mp4": 1905070445, "Midsommar.O.Mal.Nao.Espera.a.Noite.2019.720p.BluRay.6CH.x264.DUBLADO-LAPUMiA.srt": 62}
创建时间: 2019-12-21 01:15:29 大小:1.77 GB 文件数量:2 热度:9 最近下载:2025-02-14 04:40:02
    {"Legenda": {"Midsommar.O.Mal.Nao.Espera.a.Noite.2019.1080p.BluRay. ... ": 83956}, "Midsommar.O.Mal.Nao.Espera.a.Noite.2019.1080p.BluRay ... ": 3430776716, "Midsommar.O.Mal.Nao.Espera.a.Noite.2019.1080p.BluRay ...
创建时间: 2019-12-21 06:23:30 大小:3.2 GB 文件数量:3 热度:9 最近下载:2025-02-10 20:48:02
    ... , "Midsommar - O Mal Não Espera a Noite 2019 BluRay 1080p ... , "Midsommar - O Mal Não Espera a Noite 2019 BluRay 1080p ... , "Midsommar - O Mal Não Espera a Noite 2019 BluRay 1080p ...
创建时间: 2021-10-26 08:50:59 大小:3.2 GB 文件数量:5 热度:9 最近下载:2025-09-21 18:28:01
    ... -1080p-corre-gohan-milk-te-espera-en-la-montana-paoz_meta.xml ... [1080p] - ¡Corre Gohan! Milk Te Espera En La Montaña Paoz ... -1080p-corre-gohan-milk-te-espera-en-la-montana-paoz_meta.sqlite ...
创建时间: 2023-02-04 19:47:27 大小:399.35 MB 文件数量:3 热度:9 最近下载:2025-09-17 16:46:02
    {"LEIA.txt": 180, "COMANDOTORRENTS.COM.mp4": 7693131, "A.Espera.da.Chuva.2017.720p.WEB-DL.DUAL-WWW.COMANDOTORRENTS.COM.mkv": 3008390742, "A.Espera.da.Chuva.2017.720p.WEB-DL.DUAL-WWW.COMANDOTORRENTS.COM.srt": 74412}
创建时间: 2018-11-11 08:40:58 大小:2.81 GB 文件数量:4 热度:8 最近下载:2025-03-06 12:18:01
    {"www.thepiratefilmes.com.png": 153750, "LEIA __ IMPORTANTE - www.thepiratefilmes.com.png": 853754, "O Tempo Nao Espera Por Ninguem 2015 720p Bluray Dublado - WWW.THEPIRATEFILMES.COM.mp4": 1119225249}
创建时间: 2018-11-11 17:55:47 大小:1.04 GB 文件数量:3 热度:8 最近下载:2025-04-11 12:07:01
    ... -Filmes.com.png": 92759, "A Espera de Um Milagre 1080p Capa ... Bluray.jpg": 1092126, "À Espera de um Milagre (1999) BrRip ... Dual Audio - 1046.mkv": 2816789324, "À Espera de um Milagre (1999) BrRip ...
创建时间: 2018-11-14 12:14:19 大小:2.62 GB 文件数量:5 热度:8 最近下载:2025-03-17 11:45:02
    ... )_bul.sub": 56122, "Lista De Espera (1999)_eng.sub": 57330, "Lista ... De Espera (1999)_fre.sub": 59427, "Lista ... De Espera (1999)_ita.sub": 47330, "Lista ...
创建时间: 2018-11-19 02:52:30 大小:698.13 MB 文件数量:9 热度:8 最近下载:2023-04-17 09:20:06
    {"Leia.txt": 162, "BLUDV.mp4": 33957794, "BLUDV.url": 110, "A.vida.em.espera.2018.720p.BluRay.6CH.x264.DUAL-WWW.BLUDV.COM.mkv": 991804758, "A.vida.em.espera.2018.720p.BluRay.6CH.x264.DUAL-WWW.BLUDV.COM.srt": 69296}
创建时间: 2018-11-29 17:26:24 大小:978.31 MB 文件数量:5 热度:8 最近下载:2025-08-04 15:24:03
    ... .url": 57, "A.Vida.em.Espera.2018.1080p.BluRay.6CH.x264 ... .mkv": 1928967888, "A.Vida.em.Espera.2018.1080p.BluRay.6CH.x264 ...
创建时间: 2018-12-16 15:02:14 大小:1.8 GB 文件数量:5 热度:8 最近下载:2025-08-13 17:03:03
    {"Need For Speed Underground 2 Portable - [Espera].nfo": 2026, "Need For Speed Underground 2 Portable - [Espera].rar": 306249327}
创建时间: 2019-01-01 00:41:53 大小:292.06 MB 文件数量:2 热度:8 最近下载:2025-01-28 06:21:02
    {"La vida que te espera [dvdrip][spanish][www.lokotorrents.com]..avi": 730068992}
创建时间: 2019-01-01 12:47:39 大小:696.25 MB 文件数量:1 热度:8 最近下载:2025-03-08 03:30:02